Porter Corners, New York
Current Conditions -  °F | °C
As of 2:53 AM on Wednesday 22 Oct 2014 (Local Time) from KGFL Reporting Station
Overcast Overcast  
Wind Chill: 50°   Ceiling: 1500
Heat Index: 50°   Visibility: 10mi
Dew Point: 45°   Wind: 9mph
Humidity: 83%   Direction: 10°N
Pressure: 30.04"   Gusts: NA
Location:  43.15°N, 73.89°W
Report Text: KGFL 220653Z AUTO 01008KT 10SM BKN015 OVC022 10/07 A3004 RMK AO2 SLP176 T01000072
Loading
Personal Weather Stations






























Interactive Weather Map
Tropical Storm Tracking
New forecast layout! Learn more

10-Day Weather Forecast

Advertisements
Track Severe Weather on mobile